createdAt,value
2019-05-18T00:01:17.383Z,9.20
2019-05-18T00:03:45.995Z,8.20
2019-05-18T00:06:14.756Z,9.40
2019-05-18T00:08:43.442Z,8.15
2019-05-18T00:11:12.185Z,8.85
2019-05-18T00:13:41.521Z,9.40
2019-05-18T00:16:10.473Z,7.67
2019-05-18T00:18:39.207Z,8.85
2019-05-18T00:21:07.943Z,10.13
2019-05-18T00:23:36.557Z,11.20
2019-05-18T00:26:05.212Z,10.23
2019-05-18T00:28:33.874Z,10.35
2019-05-18T00:31:02.558Z,10.70
2019-05-18T00:33:31.254Z,9.35
2019-05-18T00:35:59.980Z,9.20
2019-05-18T00:38:28.641Z,10.23
2019-05-18T00:40:57.257Z,9.53
2019-05-18T00:43:25.918Z,9.08
2019-05-18T00:45:54.532Z,9.55
2019-05-18T00:48:23.344Z,11.33
2019-05-18T00:50:51.958Z,12.15
2019-05-18T00:53:20.612Z,10.48
2019-05-18T00:55:49.402Z,10.82
2019-05-18T00:58:18.062Z,10.25
2019-05-18T01:00:46.682Z,10.68
2019-05-18T01:03:15.351Z,8.90
2019-05-18T01:05:43.962Z,10.53
2019-05-18T01:08:12.621Z,11.95
2019-05-18T01:10:42.874Z,11.33
2019-05-18T01:13:12.149Z,10.93
2019-05-18T01:15:40.767Z,11.60
2019-05-18T01:18:09.523Z,11.53
2019-05-18T01:20:38.211Z,11.68
2019-05-18T01:23:06.953Z,10.80
2019-05-18T01:25:35.566Z,9.90
2019-05-18T01:28:04.227Z,11.12
2019-05-18T01:30:32.917Z,11.97
2019-05-18T01:33:01.585Z,11.45
2019-05-18T01:35:30.191Z,10.32
2019-05-18T01:37:58.868Z,10.82
2019-05-18T01:40:27.473Z,11.12
2019-05-18T01:42:56.140Z,9.68
2019-05-18T01:45:24.866Z,10.25
2019-05-18T01:47:53.530Z,10.40
2019-05-18T01:50:22.145Z,11.00
2019-05-18T01:52:51.192Z,10.95
2019-05-18T01:55:19.801Z,10.93
2019-05-18T01:57:48.413Z,11.85
2019-05-18T02:00:17.526Z,11.20
2019-05-18T02:02:46.140Z,10.80
2019-05-18T02:05:15.334Z,10.18
2019-05-18T02:07:43.955Z,11.40
2019-05-18T02:10:13.921Z,10.82
2019-05-18T02:12:42.567Z,10.25
2019-05-18T02:15:12.151Z,10.60
2019-05-18T02:17:40.778Z,11.65
2019-05-18T02:20:10.024Z,11.55
2019-05-18T02:22:38.635Z,10.55
2019-05-18T02:25:08.714Z,11.45
2019-05-18T02:27:37.341Z,11.95
2019-05-18T02:30:08.183Z,10.78
2019-05-18T02:32:36.801Z,11.03
2019-05-18T02:35:07.312Z,12.37
2019-05-18T02:37:35.926Z,11.93
2019-05-18T02:40:06.508Z,11.00
2019-05-18T02:42:35.399Z,11.03
2019-05-18T02:45:08.581Z,11.12
2019-05-18T02:47:37.277Z,10.48
2019-05-18T02:50:08.026Z,11.90
2019-05-18T02:52:36.780Z,10.78
2019-05-18T02:55:07.255Z,10.70
2019-05-18T02:57:35.945Z,11.43
2019-05-18T03:00:09.615Z,10.45
2019-05-18T03:02:38.281Z,12.05
2019-05-18T03:05:08.372Z,11.57
2019-05-18T03:07:37.092Z,11.10
2019-05-18T03:10:07.521Z,11.22
2019-05-18T03:12:36.181Z,12.10
2019-05-18T03:15:06.638Z,11.55
2019-05-18T03:17:35.304Z,10.63
2019-05-18T03:20:05.985Z,10.63
2019-05-18T03:22:34.598Z,12.07
2019-05-18T03:25:05.387Z,12.35
2019-05-18T03:27:34.005Z,10.60
2019-05-18T03:30:06.871Z,11.45
2019-05-18T03:32:35.537Z,11.45
2019-05-18T03:35:04.709Z,11.20
2019-05-18T03:37:33.450Z,10.48
2019-05-18T03:40:03.625Z,11.97
2019-05-18T03:42:32.246Z,10.78
2019-05-18T03:45:01.335Z,11.57
2019-05-18T03:47:29.951Z,11.83
2019-05-18T03:49:58.569Z,12.05
2019-05-18T03:52:27.296Z,10.90
2019-05-18T03:54:56.025Z,13.83
2019-05-18T03:57:24.693Z,11.03
2019-05-18T03:59:53.360Z,12.63
2019-05-18T04:02:21.972Z,11.12
2019-05-18T04:04:50.642Z,13.15
2019-05-18T04:07:19.258Z,11.15
2019-05-18T04:09:47.922Z,12.35
2019-05-18T04:12:16.573Z,13.68
2019-05-18T04:14:45.238Z,12.65
2019-05-18T04:17:13.867Z,12.85
2019-05-18T04:19:46.767Z,13.30
2019-05-18T04:22:12.983Z,15.15
2019-05-18T04:24:41.645Z,14.43
2019-05-18T04:27:10.276Z,14.00
2019-05-18T04:29:39.116Z,14.43
2019-05-18T04:32:07.729Z,17.12
2019-05-18T04:34:36.489Z,15.32
2019-05-18T04:37:05.113Z,15.40
2019-05-18T04:39:33.788Z,16.23
2019-05-18T04:42:02.632Z,16.57
2019-05-18T04:44:31.260Z,17.37
2019-05-18T04:46:59.931Z,17.70
2019-05-18T04:49:28.707Z,18.42
2019-05-18T04:51:57.378Z,17.95
2019-05-18T04:54:25.996Z,17.67
2019-05-18T04:56:54.661Z,17.62
2019-05-18T04:59:23.284Z,19.40
2019-05-18T05:01:52.048Z,16.93
2019-05-18T05:04:20.824Z,17.92
2019-05-18T05:06:49.499Z,17.00
2019-05-18T05:09:18.115Z,19.27
2019-05-18T05:11:46.783Z,20.02
2019-05-18T05:14:15.401Z,19.10
2019-05-18T05:16:44.074Z,21.12
2019-05-18T05:19:12.686Z,18.37
2019-05-18T05:21:41.346Z,18.42
2019-05-18T05:24:10.142Z,19.20
2019-05-18T05:26:39.551Z,19.90
2019-05-18T05:29:08.711Z,20.43
2019-05-18T05:31:37.383Z,20.30
2019-05-18T05:34:06.001Z,19.90
2019-05-18T05:36:34.666Z,19.02
2019-05-18T05:39:05.181Z,19.45
2019-05-18T05:41:33.863Z,19.07
2019-05-18T05:44:02.707Z,18.07
2019-05-18T05:46:31.358Z,17.48
2019-05-18T05:49:00.038Z,18.80
2019-05-18T05:51:28.658Z,22.73
2019-05-18T05:53:57.315Z,20.50
2019-05-18T05:56:25.979Z,16.75
2019-05-18T05:58:54.606Z,18.12
2019-05-18T06:01:23.275Z,19.73
2019-05-18T06:03:51.982Z,17.62
2019-05-18T06:06:23.085Z,19.17
2019-05-18T06:08:51.172Z,18.80
2019-05-18T06:11:19.792Z,19.85
2019-05-18T06:13:48.462Z,19.75
2019-05-18T06:16:17.128Z,21.20
2019-05-18T06:18:45.938Z,17.40
2019-05-18T06:21:14.715Z,15.63
2019-05-18T06:23:43.378Z,18.05
2019-05-18T06:26:12.003Z,15.38
2019-05-18T06:28:40.769Z,16.73
2019-05-18T06:31:09.392Z,15.50
2019-05-18T06:33:38.067Z,14.55
2019-05-18T06:36:06.717Z,13.90
2019-05-18T06:38:35.389Z,15.90
2019-05-18T06:41:04.010Z,15.35
2019-05-18T06:43:32.683Z,13.32
2019-05-18T06:46:01.349Z,13.50
2019-05-18T06:48:29.964Z,14.93
2019-05-18T06:51:07.114Z,14.47
2019-05-18T06:53:29.018Z,14.13
2019-05-18T06:55:57.977Z,15.30
2019-05-18T06:58:27.451Z,13.20
2019-05-18T07:00:56.141Z,14.80
2019-05-18T07:03:24.973Z,12.85
2019-05-18T07:05:53.629Z,13.00
2019-05-18T07:08:22.250Z,13.55
2019-05-18T07:10:50.913Z,12.18
2019-05-18T07:13:19.537Z,11.93
2019-05-18T07:15:49.817Z,10.88
2019-05-18T07:18:18.481Z,10.55
2019-05-18T07:20:47.145Z,9.78
2019-05-18T07:23:15.852Z,9.75
2019-05-18T07:25:44.468Z,9.93
2019-05-18T07:28:13.131Z,10.80
2019-05-18T07:30:41.747Z,9.38
2019-05-18T07:33:10.424Z,9.85
2019-05-18T07:35:39.308Z,9.90
2019-05-18T07:38:07.923Z,8.08
2019-05-18T07:40:36.588Z,9.18
2019-05-18T07:43:05.201Z,8.40
2019-05-18T07:45:33.861Z,7.80
2019-05-18T07:48:02.617Z,9.30
2019-05-18T07:50:31.243Z,9.88
2019-05-18T07:53:00.181Z,7.45
2019-05-18T07:55:28.875Z,8.33
2019-05-18T07:57:57.490Z,6.80
2019-05-18T08:00:26.251Z,7.20
2019-05-18T08:02:54.868Z,7.60
2019-05-18T08:05:23.538Z,9.50
2019-05-18T08:07:52.149Z,6.85
2019-05-18T08:10:33.359Z,7.75
2019-05-18T08:13:02.001Z,6.08
2019-05-18T08:15:30.855Z,7.53
2019-05-18T08:17:59.465Z,6.95
2019-05-18T08:20:28.125Z,6.72
2019-05-18T08:22:56.798Z,6.80
2019-05-18T08:25:25.473Z,7.67
2019-05-18T08:27:54.087Z,7.90
2019-05-18T08:30:22.768Z,7.75
2019-05-18T08:32:51.424Z,6.67
2019-05-18T08:35:20.039Z,7.30
2019-05-18T08:37:48.698Z,7.72
2019-05-18T08:40:17.653Z,5.78
2019-05-18T08:42:46.408Z,6.37
2019-05-18T08:45:16.153Z,5.50
2019-05-18T08:47:44.890Z,8.35
2019-05-18T08:50:13.896Z,7.33
2019-05-18T08:52:42.625Z,7.70
2019-05-18T08:55:11.779Z,7.87
2019-05-18T08:57:40.443Z,7.85
2019-05-18T09:00:11.360Z,7.90
2019-05-18T09:02:40.197Z,6.95
2019-05-18T09:05:09.823Z,7.55
2019-05-18T09:07:38.492Z,8.18
2019-05-18T09:10:08.319Z,6.97
2019-05-18T09:12:36.967Z,7.58
2019-05-18T09:15:10.189Z,6.65
2019-05-18T09:17:38.853Z,6.50
2019-05-18T09:20:08.274Z,7.08
2019-05-18T09:22:37.054Z,5.97
2019-05-18T09:25:08.126Z,6.30
2019-05-18T09:27:36.785Z,5.42
2019-05-18T09:30:07.311Z,5.28
2019-05-18T09:32:36.103Z,5.53
2019-05-18T09:35:07.734Z,5.70
2019-05-18T09:37:36.395Z,6.03
2019-05-18T09:40:07.987Z,5.50
2019-05-18T09:42:36.790Z,5.62
2019-05-18T09:45:08.207Z,5.50
2019-05-18T09:47:36.920Z,5.17
2019-05-18T09:50:06.745Z,5.80
2019-05-18T09:52:44.753Z,5.28
2019-05-18T09:55:07.876Z,5.25
2019-05-18T09:57:36.581Z,4.95
2019-05-18T10:00:10.791Z,4.58
2019-05-18T10:02:39.688Z,4.40
2019-05-18T10:05:08.644Z,4.67
2019-05-18T10:07:37.382Z,4.67
2019-05-18T10:10:08.208Z,4.05
2019-05-18T10:12:37.041Z,5.75
2019-05-18T10:15:07.469Z,4.28
2019-05-18T10:17:36.131Z,4.30
2019-05-18T10:20:09.559Z,3.95
2019-05-18T10:22:51.226Z,4.30
2019-05-18T10:25:09.445Z,4.08
2019-05-18T10:27:38.120Z,4.25
2019-05-18T10:30:08.309Z,5.78
2019-05-18T10:32:36.927Z,4.05
2019-05-18T10:35:09.089Z,4.05
2019-05-18T10:37:37.703Z,4.55
2019-05-18T10:40:08.924Z,4.17
2019-05-18T10:42:37.612Z,4.62
2019-05-18T10:45:08.075Z,4.35
2019-05-18T10:47:36.834Z,4.50
2019-05-18T10:50:07.874Z,4.20
2019-05-18T10:52:36.529Z,4.22
2019-05-18T10:55:09.029Z,4.53
2019-05-18T10:57:37.757Z,4.05
2019-05-18T11:00:11.053Z,4.65
2019-05-18T11:02:39.744Z,3.60
2019-05-18T11:05:09.716Z,3.47
2019-05-18T11:07:38.451Z,4.70
2019-05-18T11:10:09.985Z,5.45
2019-05-18T11:12:38.740Z,3.20
2019-05-18T11:15:08.811Z,3.50
2019-05-18T11:17:37.440Z,3.37
2019-05-18T11:20:09.996Z,3.67
2019-05-18T11:22:38.895Z,3.90
2019-05-18T11:25:08.967Z,4.10
2019-05-18T11:27:37.720Z,4.10
2019-05-18T11:30:08.615Z,3.98
2019-05-18T11:32:38.059Z,4.03
2019-05-18T11:35:08.204Z,4.03
2019-05-18T11:37:36.931Z,3.37
2019-05-18T11:40:07.553Z,4.53
2019-05-18T11:42:36.218Z,3.90
2019-05-18T11:45:10.828Z,4.50
2019-05-18T11:47:39.717Z,4.30
2019-05-18T11:50:09.621Z,3.62
2019-05-18T11:52:38.527Z,3.40
2019-05-18T11:55:09.740Z,3.20
2019-05-18T11:57:38.407Z,3.05
2019-05-18T12:00:12.675Z,3.60
2019-05-18T12:02:41.350Z,3.87
2019-05-18T12:05:10.676Z,3.83
2019-05-18T12:07:39.284Z,3.85
2019-05-18T12:10:10.244Z,3.50
2019-05-18T12:12:39.049Z,3.42
2019-05-18T12:15:10.665Z,3.62
2019-05-18T12:17:39.318Z,3.77
2019-05-18T12:20:08.466Z,4.95
2019-05-18T12:22:37.368Z,3.47
2019-05-18T12:25:09.891Z,3.30
2019-05-18T12:27:38.774Z,3.30
2019-05-18T12:30:09.308Z,3.10
2019-05-18T12:32:38.111Z,2.75
2019-05-18T12:35:09.300Z,2.92
2019-05-18T12:37:38.033Z,4.05
2019-05-18T12:40:08.682Z,3.08
2019-05-18T12:42:37.505Z,2.80
2019-05-18T12:45:07.379Z,3.25
2019-05-18T12:47:36.108Z,2.87
2019-05-18T12:50:07.498Z,2.47
2019-05-18T12:52:36.268Z,2.45
2019-05-18T12:55:08.513Z,2.65
2019-05-18T12:57:37.527Z,2.55
2019-05-18T13:00:12.420Z,2.50
2019-05-18T13:02:41.145Z,2.25
2019-05-18T13:05:10.664Z,2.58
2019-05-18T13:07:39.330Z,2.60
2019-05-18T13:10:09.158Z,2.85
2019-05-18T13:12:37.986Z,2.55
2019-05-18T13:15:11.554Z,2.60
2019-05-18T13:17:40.431Z,2.67
2019-05-18T13:20:11.302Z,2.58
2019-05-18T13:22:39.985Z,2.17
2019-05-18T13:25:10.241Z,2.22
2019-05-18T13:27:40.145Z,2.25
2019-05-18T13:30:11.432Z,3.05
2019-05-18T13:32:40.357Z,2.58
2019-05-18T13:35:09.635Z,2.50
2019-05-18T13:37:38.285Z,2.47
2019-05-18T13:40:08.000Z,2.50
2019-05-18T13:42:36.612Z,2.92
2019-05-18T13:45:07.891Z,2.50
2019-05-18T13:47:36.552Z,2.10
2019-05-18T13:50:07.448Z,2.42
2019-05-18T13:52:36.263Z,2.95
2019-05-18T13:55:07.222Z,2.10
2019-05-18T13:57:36.261Z,2.22
2019-05-18T14:00:07.482Z,2.20
2019-05-18T14:02:36.088Z,2.10
2019-05-18T14:05:06.245Z,2.10
2019-05-18T14:07:35.128Z,2.75
2019-05-18T14:10:06.615Z,4.83
2019-05-18T14:12:35.750Z,2.70
2019-05-18T14:15:06.328Z,2.10
2019-05-18T14:17:34.997Z,1.62
2019-05-18T14:20:04.620Z,1.82
2019-05-18T14:22:33.277Z,1.60
2019-05-18T14:25:10.557Z,6.20
2019-05-18T14:27:32.558Z,3.77
2019-05-18T14:30:01.475Z,1.50
2019-05-18T14:32:30.201Z,1.40
2019-05-18T14:34:58.888Z,1.40
2019-05-18T14:37:27.554Z,1.37
2019-05-18T14:39:56.164Z,2.10
2019-05-18T14:42:24.847Z,2.83
2019-05-18T14:44:53.462Z,3.35
2019-05-18T14:47:22.097Z,1.77
2019-05-18T14:49:50.902Z,29.80
2019-05-18T14:52:19.566Z,6.42
2019-05-18T14:54:48.178Z,3.10
2019-05-18T14:57:16.877Z,2.02
2019-05-18T14:59:45.560Z,1.40
2019-05-18T15:02:14.245Z,1.30
2019-05-18T15:04:42.901Z,1.30
2019-05-18T15:07:11.565Z,1.30
2019-05-18T15:09:40.193Z,1.40
2019-05-18T15:12:08.885Z,1.30
2019-05-18T15:14:37.621Z,1.25
2019-05-18T15:17:06.305Z,1.00
2019-05-18T15:19:35.031Z,1.20
2019-05-18T15:22:04.025Z,1.30
2019-05-18T15:24:32.714Z,1.12
2019-05-18T15:27:01.329Z,1.20
2019-05-18T15:29:30.023Z,1.47
2019-05-18T15:31:58.639Z,1.25
2019-05-18T15:34:27.479Z,1.77
2019-05-18T15:36:56.137Z,1.62
2019-05-18T15:39:24.785Z,0.90
2019-05-18T15:41:53.457Z,1.40
2019-05-18T15:44:22.210Z,1.10
2019-05-18T15:46:50.942Z,1.50
2019-05-18T15:49:19.700Z,1.30
2019-05-18T15:51:48.367Z,0.93
2019-05-18T15:54:17.008Z,2.10
2019-05-18T15:56:45.680Z,1.27
2019-05-18T15:59:14.374Z,1.15
2019-05-18T16:01:43.008Z,1.20
2019-05-18T16:04:11.737Z,1.70
2019-05-18T16:06:40.596Z,1.65
2019-05-18T16:09:09.267Z,1.30
2019-05-18T16:11:37.923Z,1.32
2019-05-18T16:14:06.783Z,1.30
2019-05-18T16:16:35.722Z,1.52
2019-05-18T16:19:04.394Z,1.20
2019-05-18T16:21:33.059Z,1.20
2019-05-18T16:24:01.795Z,1.32
2019-05-18T16:26:30.536Z,0.95
2019-05-18T16:28:59.214Z,1.10
2019-05-18T16:31:28.043Z,1.10
2019-05-18T16:33:56.659Z,1.65
2019-05-18T16:36:25.322Z,0.98
2019-05-18T16:38:53.942Z,1.30
2019-05-18T16:41:22.602Z,1.10
2019-05-18T16:43:51.236Z,1.20
2019-05-18T16:46:19.989Z,1.27
2019-05-18T16:48:48.644Z,2.35
2019-05-18T16:51:17.363Z,1.22
2019-05-18T16:53:49.941Z,1.12
2019-05-18T16:56:16.436Z,1.00
2019-05-18T16:58:45.155Z,0.98
2019-05-18T17:01:13.841Z,1.55
2019-05-18T17:03:42.497Z,1.30
2019-05-18T17:06:11.178Z,1.37
2019-05-18T17:08:39.851Z,0.90
2019-05-18T17:11:08.504Z,0.98
2019-05-18T17:13:37.206Z,1.05
2019-05-18T17:16:05.887Z,1.10
2019-05-18T17:18:34.551Z,1.05
2019-05-18T17:21:03.535Z,1.37
2019-05-18T17:23:32.311Z,1.25
2019-05-18T17:26:00.922Z,1.37
2019-05-18T17:28:29.684Z,1.10
2019-05-18T17:30:58.347Z,1.85
2019-05-18T17:33:26.966Z,1.10
2019-05-18T17:36:00.184Z,1.40
2019-05-18T17:38:25.967Z,1.60
2019-05-18T17:40:54.666Z,1.37
2019-05-18T17:43:23.355Z,1.22
2019-05-18T17:45:52.089Z,1.10
2019-05-18T17:48:20.708Z,1.52
2019-05-18T17:50:49.375Z,1.50
2019-05-18T17:53:17.990Z,2.27
2019-05-18T17:55:46.663Z,1.77
2019-05-18T17:58:15.349Z,1.40
2019-05-18T18:00:44.183Z,3.17
2019-05-18T18:03:12.927Z,1.85
2019-05-18T18:05:41.610Z,1.75
2019-05-18T18:08:10.299Z,1.45
2019-05-18T18:10:38.960Z,1.80
2019-05-18T18:13:09.544Z,1.50
2019-05-18T18:15:37.987Z,1.37
2019-05-18T18:18:06.715Z,2.02
2019-05-18T18:20:35.331Z,2.27
2019-05-18T18:23:03.995Z,4.92
2019-05-18T18:25:32.933Z,2.58
2019-05-18T18:28:01.601Z,4.90
2019-05-18T18:30:30.263Z,6.65
2019-05-18T18:32:58.878Z,10.68
2019-05-18T18:35:27.591Z,12.75
2019-05-18T18:37:56.214Z,21.23
2019-05-18T18:40:24.882Z,13.53
2019-05-18T18:42:53.646Z,5.75
2019-05-18T18:45:22.509Z,3.83
2019-05-18T18:47:51.324Z,4.80
2019-05-18T18:50:20.021Z,13.32
2019-05-18T18:52:48.683Z,17.50
2019-05-18T18:55:17.300Z,11.40
2019-05-18T18:57:46.083Z,6.87
2019-05-18T19:00:17.276Z,6.72
2019-05-18T19:02:46.008Z,6.62
2019-05-18T19:05:15.264Z,10.40
2019-05-18T19:07:43.996Z,5.60
2019-05-18T19:10:12.984Z,4.67
2019-05-18T19:12:41.604Z,14.00
2019-05-18T19:15:11.206Z,5.87
2019-05-18T19:17:39.821Z,4.12
2019-05-18T19:20:08.957Z,3.52
2019-05-18T19:22:37.574Z,3.70
2019-05-18T19:25:06.869Z,2.90
2019-05-18T19:27:35.525Z,2.72
2019-05-18T19:30:09.805Z,3.55
2019-05-18T19:35:07.897Z,3.55
2019-05-18T19:37:36.512Z,3.85
2019-05-18T19:40:09.060Z,3.70
2019-05-18T19:42:37.797Z,3.62
2019-05-18T19:45:09.952Z,4.58
2019-05-18T19:47:38.614Z,3.30
2019-05-18T19:50:07.732Z,5.05
2019-05-18T19:52:40.119Z,5.28
2019-05-18T19:55:10.175Z,10.25
2019-05-18T19:57:38.922Z,10.80
2019-05-18T20:00:09.119Z,9.20
2019-05-18T20:02:37.846Z,6.83
2019-05-18T20:05:10.115Z,6.87
2019-05-18T20:07:38.780Z,6.47
2019-05-18T20:10:08.517Z,3.83
2019-05-18T20:12:37.279Z,3.85
2019-05-18T20:15:09.409Z,4.30
2019-05-18T20:17:37.210Z,4.55
2019-05-18T20:20:09.231Z,5.10
2019-05-18T20:22:38.422Z,3.67
2019-05-18T20:25:07.153Z,4.53
2019-05-18T20:27:35.965Z,3.80
2019-05-18T20:30:08.043Z,4.03
2019-05-18T20:32:36.688Z,4.83
2019-05-18T20:35:05.827Z,4.83
2019-05-18T20:37:34.511Z,4.78
2019-05-18T20:40:04.211Z,4.47
2019-05-18T20:42:32.826Z,5.12
2019-05-18T20:45:01.492Z,4.65
2019-05-18T20:47:30.134Z,4.28
2019-05-18T20:49:58.931Z,4.25
2019-05-18T20:52:27.547Z,4.28
2019-05-18T20:54:56.209Z,4.22
2019-05-18T20:57:24.831Z,4.40
2019-05-18T20:59:53.484Z,4.30
2019-05-18T21:02:22.102Z,4.25
2019-05-18T21:04:50.764Z,4.53
2019-05-18T21:07:19.380Z,5.10
2019-05-18T21:09:48.043Z,4.85
2019-05-18T21:12:16.701Z,4.87
2019-05-18T21:14:45.370Z,4.95
2019-05-18T21:17:13.993Z,5.35
2019-05-18T21:19:42.734Z,5.22
2019-05-18T21:22:11.349Z,5.67
2019-05-18T21:24:39.965Z,4.45
2019-05-18T21:27:08.623Z,5.37
2019-05-18T21:29:37.243Z,5.05
2019-05-18T21:32:05.905Z,4.85
2019-05-18T21:34:34.566Z,4.70
2019-05-18T21:37:03.227Z,5.58
2019-05-18T21:39:31.886Z,7.25
2019-05-18T21:42:00.523Z,4.40
2019-05-18T21:44:29.208Z,5.05
2019-05-18T21:46:57.877Z,5.17
2019-05-18T21:49:26.491Z,5.22
2019-05-18T21:51:55.150Z,4.45
2019-05-18T21:54:23.767Z,5.30
2019-05-18T21:56:52.424Z,5.20
2019-05-18T21:59:21.115Z,4.95
2019-05-18T22:01:49.810Z,5.97
2019-05-18T22:04:18.469Z,4.97
2019-05-18T22:06:47.182Z,6.10
2019-05-18T22:09:15.843Z,5.08
2019-05-18T22:11:44.517Z,5.37
2019-05-18T22:14:13.125Z,5.28
2019-05-18T22:16:41.791Z,5.45
2019-05-18T22:19:10.406Z,5.35
2019-05-18T22:21:39.071Z,5.35
2019-05-18T22:24:07.685Z,5.40
2019-05-18T22:26:36.351Z,5.45
2019-05-18T22:29:05.034Z,5.70
2019-05-18T22:31:33.777Z,5.22
2019-05-18T22:34:02.462Z,4.90
2019-05-18T22:36:31.158Z,5.78
2019-05-18T22:38:59.773Z,5.60
2019-05-18T22:41:28.430Z,5.87
2019-05-18T22:43:57.041Z,6.45
2019-05-18T22:46:25.708Z,5.37
2019-05-18T22:48:54.434Z,4.95
2019-05-18T22:51:23.099Z,5.05
2019-05-18T22:53:51.761Z,5.85
2019-05-18T22:56:20.426Z,5.47
2019-05-18T22:58:49.030Z,5.17
2019-05-18T23:01:17.870Z,5.03
2019-05-18T23:03:46.554Z,4.80
2019-05-18T23:06:15.212Z,6.65
2019-05-18T23:08:43.877Z,5.87
2019-05-18T23:11:12.509Z,4.80
2019-05-18T23:13:41.731Z,5.92
2019-05-18T23:16:10.348Z,5.42
2019-05-18T23:18:39.011Z,6.08
2019-05-18T23:21:07.676Z,5.05
2019-05-18T23:23:36.363Z,5.12
2019-05-18T23:26:05.096Z,5.50
2019-05-18T23:28:33.706Z,5.53
2019-05-18T23:31:02.367Z,6.17
2019-05-18T23:33:30.998Z,5.72
2019-05-18T23:35:59.653Z,6.50
2019-05-18T23:38:28.313Z,5.45
2019-05-18T23:40:56.997Z,5.65
2019-05-18T23:43:25.659Z,5.20
2019-05-18T23:45:54.268Z,5.87
2019-05-18T23:48:22.928Z,5.30
2019-05-18T23:50:51.610Z,5.60
2019-05-18T23:53:20.335Z,6.42
2019-05-18T23:55:48.961Z,5.20
2019-05-18T23:58:17.624Z,5.95
